createdAt,value
2023-03-26T00:00:13.106Z,9.30
2023-03-26T00:02:48.202Z,9.90
2023-03-26T00:05:22.927Z,10.23
2023-03-26T00:07:52.488Z,10.68
2023-03-26T05:31:23.150Z,11.30
2023-03-26T05:33:57.881Z,12.10
2023-03-26T05:36:28.966Z,13.05
2023-03-26T05:44:00.288Z,12.05
2023-03-26T05:46:42.061Z,12.10
2023-03-26T05:51:03.039Z,13.20
2023-03-26T05:54:48.996Z,13.20
2023-03-26T05:57:02.720Z,13.93
2023-03-26T06:00:16.054Z,15.00
2023-03-26T06:02:56.621Z,14.65
2023-03-26T06:06:01.321Z,13.55
2023-03-26T06:09:01.382Z,13.77
2023-03-26T06:11:35.930Z,15.27
2023-03-26T06:14:09.544Z,15.00
2023-03-26T06:16:59.365Z,14.23
2023-03-26T06:20:42.018Z,14.15
2023-03-26T06:23:21.195Z,14.38
2023-03-26T06:26:04.621Z,13.40
2023-03-26T06:29:23.825Z,13.02
2023-03-26T06:32:26.632Z,12.38
2023-03-26T06:35:06.977Z,11.75
2023-03-26T06:37:35.527Z,12.82
2023-03-26T06:40:15.898Z,12.10
2023-03-26T06:43:07.787Z,13.27
2023-03-26T06:46:08.107Z,14.75
2023-03-26T06:48:59.060Z,14.18
2023-03-26T07:18:52.320Z,16.30
2023-03-26T07:50:22.237Z,9.07
2023-03-26T07:59:21.876Z,7.93
2023-03-26T08:02:52.121Z,7.05
2023-03-26T08:05:53.032Z,6.70
2023-03-26T08:09:01.834Z,6.78
2023-03-26T08:12:08.140Z,6.03
2023-03-26T08:14:57.063Z,6.03
2023-03-26T08:18:04.477Z,6.90
2023-03-26T08:20:44.466Z,5.78
2023-03-26T08:23:52.143Z,6.30
2023-03-26T08:26:45.609Z,6.30
2023-03-26T08:29:30.144Z,5.90
2023-03-26T08:32:00.276Z,6.28
2023-03-26T08:34:28.231Z,5.82
2023-03-26T08:36:58.981Z,6.40
2023-03-26T08:39:29.767Z,6.43
2023-03-26T08:42:24.415Z,5.90
2023-03-26T08:45:13.495Z,5.95
2023-03-26T08:48:14.150Z,5.78
2023-03-26T08:51:03.612Z,5.43
2023-03-26T08:53:32.042Z,5.68
2023-03-26T08:56:19.760Z,4.68
2023-03-26T09:00:19.441Z,4.70
2023-03-26T09:03:12.017Z,4.30
2023-03-26T09:06:12.383Z,3.50
2023-03-26T09:09:19.050Z,1.60
2023-03-26T09:12:16.728Z,2.10
2023-03-26T09:15:18.448Z,2.30
2023-03-26T09:17:49.410Z,2.20
2023-03-26T09:20:57.934Z,2.20
2023-03-26T09:23:56.895Z,1.95
2023-03-26T09:26:28.409Z,2.70
2023-03-26T09:28:57.492Z,2.25
2023-03-26T09:32:07.475Z,2.13
2023-03-26T09:35:16.794Z,2.08
2023-03-26T09:38:11.815Z,2.25
2023-03-26T09:41:20.474Z,3.78
2023-03-26T09:47:35.114Z,2.30
2023-03-26T09:50:20.592Z,2.42
2023-03-26T09:53:05.972Z,2.60
2023-03-26T09:55:43.039Z,2.40
2023-03-26T09:58:32.915Z,2.47
2023-03-26T10:01:08.882Z,3.13
2023-03-26T10:04:10.986Z,3.25
2023-03-26T10:06:54.793Z,2.90
2023-03-26T10:12:32.529Z,3.13
2023-03-26T10:15:36.348Z,3.33
2023-03-26T10:21:27.356Z,2.42
2023-03-26T10:24:03.097Z,2.38
2023-03-26T10:26:38.529Z,2.72
2023-03-26T10:29:50.344Z,2.65
2023-03-26T10:33:06.360Z,2.90
2023-03-26T10:35:47.676Z,2.75
2023-03-26T10:38:58.523Z,2.20
2023-03-26T10:41:46.505Z,2.92
2023-03-26T10:44:19.920Z,2.92
2023-03-26T10:47:20.792Z,3.55
2023-03-26T10:50:09.161Z,3.92
2023-03-26T10:52:37.529Z,3.05
2023-03-26T10:55:19.432Z,3.80
2023-03-26T10:58:04.664Z,3.80
2023-03-26T11:00:43.195Z,4.10
2023-03-26T11:03:39.720Z,3.67
2023-03-26T11:06:40.106Z,4.40
2023-03-26T11:09:25.125Z,4.13
2023-03-26T11:12:26.124Z,4.22
2023-03-26T11:15:22.435Z,4.53
2023-03-26T11:18:01.439Z,4.20
2023-03-26T11:20:40.163Z,4.10
2023-03-26T11:23:27.525Z,3.83
2023-03-26T11:26:15.223Z,4.28
2023-03-26T11:29:03.049Z,4.03
2023-03-26T11:32:03.409Z,3.30
2023-03-26T11:34:55.716Z,3.28
2023-03-26T11:37:55.767Z,3.63
2023-03-26T11:40:44.695Z,3.70
2023-03-26T11:43:27.631Z,3.20
2023-03-26T11:46:02.637Z,3.50
2023-03-26T11:49:00.036Z,2.85
2023-03-26T11:51:38.225Z,3.10
2023-03-26T11:54:25.985Z,3.33
2023-03-26T11:57:07.154Z,3.22
2023-03-26T11:59:56.518Z,3.25
2023-03-26T12:02:34.689Z,3.40
2023-03-26T12:05:20.916Z,2.85
2023-03-26T12:07:58.041Z,3.13
2023-03-26T12:10:38.470Z,3.10
2023-03-26T12:13:30.594Z,3.20
2023-03-26T12:16:22.803Z,3.17
2023-03-26T12:22:00.479Z,3.25
2023-03-26T12:24:36.394Z,3.22
2023-03-26T12:27:45.974Z,3.55
2023-03-26T12:30:27.543Z,3.13
2023-03-26T12:33:03.851Z,2.58
2023-03-26T12:35:35.117Z,2.58
2023-03-26T12:38:22.502Z,2.85
2023-03-26T12:44:43.455Z,2.70
2023-03-26T12:44:52.935Z,2.97
2023-03-26T12:47:58.717Z,3.13
2023-03-26T12:50:59.498Z,2.67
2023-03-26T12:53:38.335Z,2.47
2023-03-26T12:56:38.997Z,3.03
2023-03-26T12:59:37.648Z,3.28
2023-03-26T13:03:07.987Z,2.25
2023-03-26T13:06:23.391Z,2.97
2023-03-26T13:09:35.072Z,3.53
2023-03-26T13:12:23.104Z,2.92
2023-03-26T13:19:01.566Z,2.58
2023-03-26T13:22:16.927Z,2.25
2023-03-26T13:25:37.444Z,2.17
2023-03-26T13:28:54.213Z,2.72
2023-03-26T13:32:17.198Z,2.85
2023-03-26T13:35:17.631Z,2.60
2023-03-26T13:38:19.345Z,2.97
2023-03-26T13:41:28.624Z,2.50
2023-03-26T19:49:52.860Z,5.03
2023-03-26T19:52:20.572Z,3.97
2023-03-26T19:55:00.642Z,5.47
2023-03-26T19:57:33.481Z,4.78
2023-03-26T20:00:01.663Z,4.65
2023-03-26T20:02:33.441Z,5.10
2023-03-26T20:05:01.748Z,6.05
2023-03-26T20:08:00.143Z,5.18
2023-03-26T20:10:29.809Z,5.60
2023-03-26T20:12:58.554Z,5.38
2023-03-26T20:15:35.018Z,5.72
2023-03-26T20:18:21.764Z,5.93
2023-03-26T20:20:50.789Z,6.03
2023-03-26T20:23:20.509Z,5.70
2023-03-26T20:25:55.170Z,5.22
2023-03-26T20:28:24.696Z,6.30
2023-03-26T20:30:54.687Z,5.25
2023-03-26T20:33:26.804Z,6.13
2023-03-26T20:35:57.001Z,6.03
2023-03-26T20:38:38.932Z,5.82
2023-03-26T20:44:22.677Z,6.13
2023-03-26T20:46:54.046Z,6.25
2023-03-26T20:49:23.039Z,6.93
2023-03-26T20:51:51.505Z,6.43
2023-03-26T20:54:25.496Z,6.30
2023-03-26T20:56:55.922Z,6.35
2023-03-26T20:59:27.171Z,6.10
2023-03-26T21:01:58.134Z,7.13
2023-03-26T21:04:27.115Z,7.00
2023-03-26T21:07:03.153Z,6.75
2023-03-26T21:09:35.761Z,5.88
2023-03-26T21:12:21.584Z,7.15
2023-03-26T21:14:49.389Z,7.35
2023-03-26T21:17:21.081Z,7.07
2023-03-26T21:19:49.519Z,7.38
2023-03-26T21:23:00.548Z,7.32
2023-03-26T21:25:47.280Z,7.65
2023-03-26T21:28:39.763Z,7.82
2023-03-26T21:31:19.799Z,9.25
2023-03-26T21:33:49.591Z,9.90
2023-03-26T21:36:19.925Z,8.73
2023-03-26T21:38:48.143Z,9.05
2023-03-26T21:42:06.519Z,8.98
2023-03-26T21:44:37.655Z,8.63
2023-03-26T21:47:09.206Z,8.20
2023-03-26T21:49:38.706Z,8.15
2023-03-26T21:52:07.288Z,7.65
2023-03-26T21:54:35.757Z,6.47
2023-03-26T21:57:25.592Z,6.40
2023-03-26T22:00:07.241Z,6.28
2023-03-26T22:02:48.848Z,6.50
2023-03-26T22:05:19.970Z,6.22
2023-03-26T22:08:30.766Z,6.07
2023-03-26T22:11:08.906Z,6.22
2023-03-26T22:13:38.636Z,6.75
2023-03-26T22:16:09.823Z,6.47
2023-03-26T22:18:40.840Z,5.75
2023-03-26T22:21:09.643Z,6.50
2023-03-26T22:23:38.493Z,6.00
2023-03-26T22:26:07.629Z,6.47
2023-03-26T22:28:35.799Z,7.50
2023-03-26T22:31:11.152Z,7.22
2023-03-26T22:33:40.195Z,7.65
2023-03-26T22:36:22.712Z,7.57
2023-03-26T22:39:29.048Z,8.90
2023-03-26T22:42:16.050Z,8.73
2023-03-26T22:44:43.999Z,8.75
2023-03-26T22:47:13.584Z,8.00
2023-03-26T22:49:42.028Z,8.60
2023-03-26T22:52:10.320Z,9.70
2023-03-26T22:54:38.897Z,8.57
2023-03-26T22:57:07.309Z,8.82
2023-03-26T22:59:35.247Z,7.97
2023-03-26T23:02:03.049Z,8.18
2023-03-26T23:04:33.336Z,7.75
2023-03-26T23:07:01.350Z,8.02
2023-03-26T23:09:30.115Z,8.07
2023-03-26T23:11:58.600Z,7.05
2023-03-26T23:14:26.442Z,6.80
2023-03-26T23:16:54.352Z,7.20
2023-03-26T23:19:22.140Z,6.55
2023-03-26T23:27:40.292Z,5.75
2023-03-26T23:30:18.456Z,6.28
2023-03-26T23:32:47.153Z,6.55
2023-03-26T23:35:15.171Z,6.78
2023-03-26T23:37:43.047Z,6.60
2023-03-26T23:40:12.573Z,6.55
2023-03-26T23:42:40.434Z,4.68
2023-03-26T23:45:14.519Z,4.28
2023-03-26T23:47:42.811Z,4.60
2023-03-26T23:50:11.374Z,4.30
2023-03-26T23:52:40.649Z,3.67
2023-03-26T23:55:08.846Z,3.55
2023-03-26T23:57:37.275Z,3.55
